Time;durP1;ratioP1;P1;durP2;ratioP2;P2;SDS_P1;SDS_P2;PMS_P1;PMS_P2;Temp;Humidity;BMP_temperature;BMP_pressure;BME280_temperature;BME280_humidity;BME280_pressure;Samples;Min_cycle;Max_cycle;Signal;HPM_P1;HPM_P2
2024/01/14 00:02:54;;;;;;;9.65;7.47;;;;;;;16.59;37.20;96681.03;10363698;28;20037;-31
2024/01/14 00:07:54;;;;;;;11.57;7.63;;;;;;;16.58;37.47;96671.75;10363704;28;20034;-30
2024/01/14 00:12:54;;;;;;;11.15;8.68;;;;;;;16.61;37.18;96662.53;10365004;28;20414;-30
2024/01/14 00:17:55;;;;;;;10.67;8.57;;;;;;;16.60;37.76;96660.00;10365218;28;20041;-31
2024/01/14 00:22:56;;;;;;;12.20;7.97;;;;;;;16.66;37.12;96660.88;10363561;28;20029;-30
2024/01/14 00:27:56;;;;;;;10.10;7.75;;;;;;;16.66;36.83;96655.81;10364583;28;20022;-29
2024/01/14 00:32:57;;;;;;;11.52;8.40;;;;;;;16.71;36.64;96650.78;10357743;28;20022;-31
2024/01/14 00:37:59;;;;;;;11.07;7.60;;;;;;;16.70;36.97;96641.53;10363766;28;20305;-30
2024/01/14 00:43:00;;;;;;;11.07;7.70;;;;;;;16.67;37.08;96636.44;10363970;28;20053;-30
2024/01/14 00:48:00;;;;;;;10.65;8.35;;;;;;;16.69;36.71;96624.66;10363564;28;20037;-31
2024/01/14 00:53:00;;;;;;;12.33;8.00;;;;;;;16.68;36.83;96611.19;10362608;28;20498;-31
2024/01/14 00:58:01;;;;;;;11.63;8.40;;;;;;;16.65;36.68;96601.06;10363079;28;20065;-30
2024/01/14 01:03:01;;;;;;;10.67;8.27;;;;;;;16.68;36.46;96596.00;10364151;28;20042;-30
2024/01/14 01:08:02;;;;;;;8.93;7.10;;;;;;;16.64;36.75;96584.22;10362587;28;20372;-31
2024/01/14 01:13:02;;;;;;;9.52;8.15;;;;;;;16.64;36.24;96586.75;10362214;28;20369;-31
2024/01/14 01:18:05;;;;;;;9.65;8.13;;;;;;;16.61;36.26;96581.66;10363713;28;20045;-30
2024/01/14 01:23:06;;;;;;;10.07;8.18;;;;;;;16.63;36.64;96579.97;10362672;28;20069;-31
2024/01/14 01:28:06;;;;;;;9.37;7.70;;;;;;;16.64;36.54;96576.63;10363071;28;20080;-31
2024/01/14 01:33:07;;;;;;;9.90;8.05;;;;;;;16.63;37.10;96576.59;10358827;28;20521;-30
2024/01/14 01:38:07;;;;;;;11.17;8.83;;;;;;;16.62;36.39;96580.81;10362843;28;20038;-31
2024/01/14 01:43:07;;;;;;;11.33;7.73;;;;;;;16.61;36.54;96586.69;10360733;28;20326;-30
2024/01/14 01:48:08;;;;;;;11.80;8.60;;;;;;;16.54;36.88;96564.75;10357773;28;20042;-31
2024/01/14 01:53:09;;;;;;;9.63;7.55;;;;;;;16.62;36.85;96580.81;10357582;28;20715;-30
2024/01/14 01:58:10;;;;;;;11.20;7.90;;;;;;;16.60;37.13;96577.44;10359205;28;20037;-30
2024/01/14 02:03:11;;;;;;;13.90;8.43;;;;;;;16.60;36.52;96574.91;10369501;28;20095;-30
2024/01/14 02:08:12;;;;;;;11.38;8.45;;;;;;;16.62;37.22;96582.50;10369462;28;20421;-29
2024/01/14 02:13:12;;;;;;;10.77;8.20;;;;;;;16.64;36.38;96566.50;10369465;28;20045;-30
2024/01/14 02:18:12;;;;;;;10.77;7.77;;;;;;;16.67;36.30;96558.94;10367437;28;20484;-31
2024/01/14 02:23:20;;;;;;;11.75;8.07;;;;;;;16.65;36.27;96555.56;10369205;28;20462;-31
2024/01/14 02:28:20;;;;;;;10.05;8.23;;;;;;;16.63;37.02;96548.81;10367999;28;20580;-31
2024/01/14 02:33:22;;;;;;;10.25;8.00;;;;;;;16.64;36.37;96546.28;10367534;28;20042;-30
2024/01/14 02:38:22;;;;;;;10.98;8.35;;;;;;;16.66;37.09;96531.97;10365387;28;20091;-31
2024/01/14 02:43:23;;;;;;;14.57;8.63;;;;;;;16.65;36.27;96530.28;10367829;28;20060;-30
2024/01/14 02:48:23;;;;;;;12.57;8.27;;;;;;;16.65;36.85;96511.75;10366917;28;20296;-31
2024/01/14 02:53:23;;;;;;;10.93;8.40;;;;;;;16.63;36.62;96503.31;10367838;28;20025;-30
2024/01/14 02:58:24;;;;;;;11.43;8.27;;;;;;;16.64;36.90;96505.84;10368049;28;20398;-30
2024/01/14 03:03:24;;;;;;;16.73;10.05;;;;;;;16.64;36.44;96505.84;10366956;28;20498;-31
2024/01/14 03:08:24;;;;;;;11.17;8.47;;;;;;;16.61;36.50;96495.72;10368333;28;20029;-30
2024/01/14 03:13:26;;;;;;;12.63;8.50;;;;;;;16.57;36.86;96486.44;10366613;28;20040;-31
2024/01/14 03:18:27;;;;;;;12.38;8.48;;;;;;;16.58;36.47;96483.09;10366420;28;20042;-30
2024/01/14 03:23:27;;;;;;;14.13;8.47;;;;;;;16.59;35.97;96477.19;10367020;28;20033;-30
2024/01/14 03:28:27;;;;;;;11.13;7.53;;;;;;;16.60;36.28;96473.81;10366353;28;20301;-31
2024/01/14 03:33:28;;;;;;;13.83;8.53;;;;;;;16.63;36.05;96473.81;10362472;28;20029;-31
2024/01/14 03:38:28;;;;;;;11.10;7.93;;;;;;;16.64;36.06;96465.41;10366296;28;20069;-29
2024/01/14 03:43:28;;;;;;;11.70;8.30;;;;;;;16.66;36.07;96458.69;10365985;28;20307;-31
2024/01/14 03:48:29;;;;;;;10.00;8.37;;;;;;;16.67;35.89;96460.34;10365530;28;20493;-30
2024/01/14 03:53:29;;;;;;;12.17;9.07;;;;;;;16.66;36.30;96458.69;10365450;28;20048;-30
2024/01/14 03:58:29;;;;;;;11.87;9.17;;;;;;;16.65;35.96;96446.03;10365268;28;20712;-30
2024/01/14 04:03:30;;;;;;;9.77;8.17;;;;;;;16.62;36.61;96441.81;10363920;28;20029;-30
2024/01/14 04:08:30;;;;;;;10.70;8.23;;;;;;;16.60;35.90;96435.91;10361488;28;20041;-30
2024/01/14 04:13:30;;;;;;;13.57;8.83;;;;;;;16.58;35.99;96435.06;10362455;28;20038;-30
2024/01/14 04:18:34;;;;;;;12.73;8.97;;;;;;;16.62;35.51;96431.69;10359951;28;20050;-30
2024/01/14 04:23:34;;;;;;;12.77;8.07;;;;;;;16.60;35.54;96428.31;10363817;28;20485;-30
2024/01/14 04:28:36;;;;;;;10.77;7.80;;;;;;;16.58;35.49;96434.22;10363074;28;20033;-31
2024/01/14 04:33:36;;;;;;;12.18;8.88;;;;;;;16.58;35.38;96424.09;10363294;28;20096;-30
2024/01/14 04:38:37;;;;;;;10.80;8.38;;;;;;;16.59;35.16;96421.59;10364341;28;20513;-31
2024/01/14 04:43:37;;;;;;;10.97;9.03;;;;;;;16.56;35.31;96420.72;10362853;28;20038;-31
2024/01/14 04:48:37;;;;;;;11.33;8.87;;;;;;;16.52;35.74;96414.81;10363408;28;20666;-30
2024/01/14 04:53:38;;;;;;;11.80;9.27;;;;;;;16.53;35.52;96410.63;10363775;28;20038;-31
2024/01/14 04:58:39;;;;;;;12.73;8.73;;;;;;;16.55;34.79;96414.81;10363265;28;20485;-35
2024/01/14 05:03:39;;;;;;;12.63;9.30;;;;;;;16.59;35.23;96419.06;10362845;28;20118;-29
2024/01/14 05:08:42;;;;;;;11.53;9.03;;;;;;;16.57;34.93;96413.16;10363032;28;20038;-30
2024/01/14 05:13:43;;;;;;;10.55;8.43;;;;;;;16.54;35.26;96414.84;10362204;28;20053;-30
2024/01/14 05:18:43;;;;;;;11.10;8.73;;;;;;;16.55;34.58;96409.75;10363445;28;20042;-30
2024/01/14 05:23:44;;;;;;;10.70;8.63;;;;;;;16.53;35.22;96416.50;10362739;28;20037;-31
2024/01/14 05:28:44;;;;;;;12.60;9.32;;;;;;;16.54;34.58;96410.59;10362532;28;20061;-30
2024/01/14 05:33:44;;;;;;;11.97;9.27;;;;;;;16.55;34.49;96412.28;10361527;28;20026;-30
2024/01/14 05:38:45;;;;;;;11.33;9.30;;;;;;;16.53;35.15;96405.56;10371461;28;20284;-30
2024/01/14 05:43:45;;;;;;;13.00;9.43;;;;;;;16.57;34.58;96412.31;10369407;28;20040;-30
2024/01/14 05:48:45;;;;;;;10.63;8.47;;;;;;;16.55;34.71;96409.75;10370073;28;20034;-30
2024/01/14 05:53:46;;;;;;;9.80;8.50;;;;;;;16.54;34.86;96403.03;10370258;28;20034;-30
2024/01/14 05:58:46;;;;;;;12.50;9.27;;;;;;;16.51;35.00;96408.09;10368993;28;20034;-29
2024/01/14 06:03:46;;;;;;;12.73;9.10;;;;;;;16.48;34.96;96403.03;10368928;28;20064;-31
2024/01/14 06:08:47;;;;;;;11.40;8.90;;;;;;;16.49;35.42;96406.38;10370389;28;20547;-30
2024/01/14 06:13:47;;;;;;;12.40;9.43;;;;;;;16.48;34.63;96408.09;10368675;28;20384;-30
2024/01/14 06:18:47;;;;;;;13.67;8.90;;;;;;;16.54;34.47;96413.13;10369066;28;20794;-30
2024/01/14 06:23:49;;;;;;;10.67;8.90;;;;;;;16.53;34.83;96401.34;10369005;28;20310;-30
2024/01/14 06:28:49;;;;;;;14.25;9.52;;;;;;;16.59;34.73;96405.56;10369159;28;20517;-31
2024/01/14 06:33:50;;;;;;;13.20;9.40;;;;;;;16.60;34.06;96403.06;10368157;28;20080;-30
2024/01/14 06:38:50;;;;;;;12.02;8.60;;;;;;;16.61;34.27;96402.22;10368725;28;20128;-31
2024/01/14 06:43:50;;;;;;;12.97;9.47;;;;;;;16.63;34.08;96408.09;10367867;28;20405;-30
2024/01/14 06:48:51;;;;;;;14.60;10.68;;;;;;;16.62;34.59;96410.66;10366646;28;20288;-30
2024/01/14 06:53:51;;;;;;;11.63;8.67;;;;;;;16.64;33.80;96419.06;10368519;28;20030;-31
2024/01/14 06:58:52;;;;;;;10.93;8.23;;;;;;;16.65;33.95;96421.59;10367660;28;20303;-30
2024/01/14 07:03:52;;;;;;;12.07;9.27;;;;;;;16.66;33.55;96423.28;10365454;28;20033;-30
2024/01/14 07:08:53;;;;;;;12.77;9.23;;;;;;;16.60;33.38;96419.91;10367978;28;20045;-30
2024/01/14 07:13:53;;;;;;;9.75;8.13;;;;;;;16.64;33.58;96429.19;10366255;28;20038;-30
2024/01/14 07:18:53;;;;;;;10.33;8.10;;;;;;;16.63;33.49;96425.78;10366472;28;20038;-30
2024/01/14 07:23:54;;;;;;;12.13;8.80;;;;;;;16.63;33.32;96413.16;10366927;28;20045;-30
2024/01/14 07:28:54;;;;;;;12.83;9.17;;;;;;;16.60;33.90;96402.22;10365254;28;20432;-31
2024/01/14 07:33:54;;;;;;;11.40;8.50;;;;;;;16.59;33.59;96406.41;10364635;28;20032;-30
2024/01/14 07:38:55;;;;;;;12.40;8.77;;;;;;;16.58;33.83;96384.53;10363836;28;20406;-31
2024/01/14 07:43:55;;;;;;;12.88;9.20;;;;;;;16.64;32.48;96379.50;10363986;28;20296;-30
2024/01/14 07:48:56;;;;;;;12.70;10.27;;;;;;;16.58;32.22;96369.34;10364107;28;20509;-29
2024/01/14 07:53:56;;;;;;;16.63;11.93;;;;;;;16.57;31.84;96362.63;10365258;28;20041;-30
2024/01/14 07:58:56;;;;;;;16.67;11.90;;;;;;;16.57;30.96;96344.94;10364078;28;20034;-30
2024/01/14 08:03:57;;;;;;;15.73;11.68;;;;;;;16.56;30.87;96345.78;10362132;28;20038;-30
2024/01/14 08:08:57;;;;;;;16.90;12.93;;;;;;;16.53;29.64;96349.97;10363146;28;20040;-31
2024/01/14 08:13:58;;;;;;;18.57;12.07;;;;;;;16.57;29.79;96350.00;10364324;28;20037;-30
2024/01/14 08:18:58;;;;;;;15.83;11.40;;;;;;;16.58;29.85;96346.63;10363862;28;20034;-30
2024/01/14 08:24:03;;;;;;;16.25;11.93;;;;;;;16.56;30.33;96343.25;10364309;28;20288;-30
2024/01/14 08:29:03;;;;;;;16.88;11.93;;;;;;;16.56;30.27;96350.84;10362689;28;20038;-30
2024/01/14 08:34:04;;;;;;;22.43;13.27;;;;;;;16.53;29.61;96349.97;10363128;28;20394;-31
2024/01/14 08:39:05;;;;;;;17.25;12.07;;;;;;;16.48;30.15;96337.34;10364162;28;20044;-30
2024/01/14 08:44:06;;;;;;;19.85;11.90;;;;;;;16.43;31.21;96333.94;10363555;28;20041;-29
2024/01/14 08:49:07;;;;;;;16.63;12.57;;;;;;;16.44;31.15;96335.63;10363253;28;20041;-30
2024/01/14 08:54:07;;;;;;;14.82;11.20;;;;;;;16.44;31.39;96325.53;10363003;28;20040;-30
2024/01/14 08:59:08;;;;;;;16.77;12.07;;;;;;;16.46;30.79;96323.84;10364022;28;20046;-30
2024/01/14 09:04:08;;;;;;;18.30;11.23;;;;;;;16.46;30.96;96318.78;10363017;28;20077;-30
2024/01/14 09:09:09;;;;;;;15.63;11.00;;;;;;;16.43;31.36;96308.69;10363773;28;20397;-31
2024/01/14 09:14:09;;;;;;;15.93;12.27;;;;;;;16.37;31.40;96297.75;10362841;28;20397;-30
2024/01/14 09:19:10;;;;;;;16.70;11.00;;;;;;;16.35;31.90;96289.28;10360316;28;20049;-29
2024/01/14 09:24:10;;;;;;;15.65;10.18;;;;;;;16.19;32.48;96273.25;10362964;28;20026;-29
2024/01/14 09:29:11;;;;;;;15.33;10.43;;;;;;;16.26;32.92;96294.31;10361199;28;20042;-31
2024/01/14 09:34:11;;;;;;;12.60;9.35;;;;;;;16.30;33.94;96291.78;10361201;28;20030;-30
2024/01/14 09:39:12;;;;;;;16.77;11.73;;;;;;;16.32;31.79;96290.13;10363252;28;20048;-31
2024/01/14 09:44:16;;;;;;;18.85;11.85;;;;;;;16.32;32.71;96292.66;10362333;28;20120;-30
2024/01/14 09:49:18;;;;;;;19.75;12.25;;;;;;;16.39;33.28;96284.28;10362623;28;20068;-30
2024/01/14 09:54:18;;;;;;;20.23;13.77;;;;;;;16.19;32.23;96283.34;10360371;28;20065;-30
2024/01/14 09:59:19;;;;;;;15.73;10.80;;;;;;;16.33;34.30;96281.69;10359762;28;20550;-30
2024/01/14 10:04:22;;;;;;;14.25;10.75;;;;;;;16.34;34.52;96280.84;10360416;28;20300;-29
2024/01/14 10:09:24;;;;;;;17.10;10.55;;;;;;;16.34;34.18;96273.28;10362815;28;20038;-30
2024/01/14 10:14:27;;;;;;;16.48;11.20;;;;;;;16.33;33.76;96270.75;10361173;28;20092;-31
2024/01/14 10:19:29;;;;;;;15.38;10.18;;;;;;;16.33;33.74;96266.53;10361176;28;20408;-30
2024/01/14 10:24:32;;;;;;;15.57;11.00;;;;;;;16.31;33.35;96253.09;10365911;28;20080;-31
2024/01/14 10:29:32;;;;;;;14.35;10.48;;;;;;;16.32;33.53;96241.28;10365752;28;20042;-30
2024/01/14 10:34:33;;;;;;;12.17;9.40;;;;;;;16.33;33.05;96215.16;10365967;28;20033;-30
2024/01/14 10:39:34;;;;;;;13.77;10.13;;;;;;;16.32;33.69;96205.91;10369226;28;20038;-30
2024/01/14 10:44:35;;;;;;;15.10;10.32;;;;;;;16.29;33.02;96195.81;10367856;28;20165;-30
2024/01/14 10:49:40;;;;;;;16.08;9.98;;;;;;;16.29;33.05;96184.00;10367869;28;20096;-30
2024/01/14 10:54:52;;;;;;;12.15;9.52;;;;;;;16.30;33.12;96173.06;10368310;28;20029;-31
2024/01/14 11:00:00;;;;;;;14.15;10.13;;;;;;;16.28;32.97;96166.34;10366702;28;20476;-34
2024/01/14 11:05:00;;;;;;;10.95;8.50;;;;;;;16.27;33.03;96160.44;10362475;28;20192;-30
2024/01/14 11:10:03;;;;;;;16.25;10.57;;;;;;;16.24;33.25;96145.31;10368141;28;20040;-29
2024/01/14 11:15:12;;;;;;;11.52;8.95;;;;;;;16.26;32.52;96137.72;10366859;28;20139;-31
2024/01/14 11:20:16;;;;;;;14.15;10.30;;;;;;;16.31;32.37;96125.94;10366181;28;20387;-29
2024/01/14 11:25:21;;;;;;;12.77;9.18;;;;;;;16.27;32.74;96112.47;10367488;28;20054;-30
2024/01/14 11:30:53;;;;;;;13.02;9.40;;;;;;;16.27;33.04;96102.34;10365892;28;20030;-30
2024/01/14 11:35:53;;;;;;;11.60;8.98;;;;;;;16.24;32.76;96084.69;10363124;28;20030;-30
2024/01/14 11:40:54;;;;;;;12.38;9.30;;;;;;;16.26;33.24;96072.91;10365410;28;20034;-31
2024/01/14 11:45:54;;;;;;;12.43;9.63;;;;;;;16.18;33.18;96061.97;10366407;28;20038;-30
2024/01/14 11:50:55;;;;;;;12.63;9.10;;;;;;;16.24;33.46;96059.44;10364246;28;20088;-30
2024/01/14 11:55:55;;;;;;;11.25;8.80;;;;;;;16.23;32.65;96042.63;10356556;28;20034;-30
2024/01/14 12:00:57;;;;;;;12.27;9.27;;;;;;;16.26;32.98;96035.03;10355042;28;20034;-29
2024/01/14 12:06:00;;;;;;;11.85;8.73;;;;;;;16.27;33.75;96024.06;10359782;28;20052;-30
2024/01/14 12:11:01;;;;;;;11.50;8.77;;;;;;;16.24;35.68;96006.41;10360979;28;20045;-30
2024/01/14 12:16:01;;;;;;;12.05;8.00;;;;;;;16.28;35.65;96000.50;10360423;28;20049;-31
2024/01/14 12:21:07;;;;;;;10.95;7.82;;;;;;;16.29;35.24;95979.44;10360374;28;20526;-31
2024/01/14 12:26:09;;;;;;;10.00;7.63;;;;;;;16.38;34.70;95966.81;10361002;28;20029;-30
2024/01/14 12:31:18;;;;;;;11.15;8.30;;;;;;;16.42;34.63;95955.84;10360250;28;20245;-30
2024/01/14 12:36:21;;;;;;;12.05;7.85;;;;;;;16.47;33.60;95944.06;10359460;28;20037;-31
2024/01/14 12:41:21;;;;;;;11.30;8.95;;;;;;;16.57;30.82;95922.09;10358938;28;20406;-30
2024/01/14 12:46:22;;;;;;;10.77;7.93;;;;;;;16.56;34.48;95921.28;10360055;28;20045;-31
2024/01/14 12:51:24;;;;;;;12.38;8.65;;;;;;;16.58;32.35;95896.81;10359448;28;20033;-30
2024/01/14 12:56:24;;;;;;;12.15;8.70;;;;;;;16.60;33.75;95885.03;10357386;28;20038;-30
2024/01/14 13:01:25;;;;;;;12.00;8.05;;;;;;;16.61;33.53;95873.25;10359068;28;20041;-30
2024/01/14 13:06:25;;;;;;;12.75;8.90;;;;;;;16.63;33.61;95876.59;10358861;28;20125;-30
2024/01/14 13:11:25;;;;;;;10.90;8.60;;;;;;;16.61;33.39;95874.06;10358909;28;20030;-30
2024/01/14 13:16:26;;;;;;;9.93;7.83;;;;;;;16.63;33.02;95867.31;10359424;28;20184;-30
2024/01/14 13:21:26;;;;;;;22.38;8.75;;;;;;;16.60;32.23;95859.75;10358060;28;20034;-29
2024/01/14 13:26:28;;;;;;;19.90;12.07;;;;;;;16.28;31.08;95864.13;10359407;28;20033;-32
2024/01/14 13:31:28;;;;;;;11.75;8.93;;;;;;;16.53;31.93;95863.16;10357215;28;20057;-30
2024/01/14 13:36:28;;;;;;;11.88;7.70;;;;;;;16.55;33.72;95861.47;10358992;28;20105;-30
2024/01/14 13:41:29;;;;;;;9.17;6.17;;;;;;;16.54;36.20;95856.44;10359003;28;20038;-30
2024/01/14 13:46:31;;;;;;;7.73;6.87;;;;;;;16.54;35.58;95849.69;10358618;28;20037;-30
2024/01/14 13:51:31;;;;;;;7.45;5.85;;;;;;;16.54;36.06;95836.22;10357621;28;20292;-31
2024/01/14 13:56:32;;;;;;;8.48;6.63;;;;;;;16.46;36.54;95818.56;10359609;28;20046;-30
2024/01/14 14:01:32;;;;;;;11.53;6.70;;;;;;;16.50;37.05;95829.50;10365413;28;20465;-31
2024/01/14 14:06:35;;;;;;;7.43;5.77;;;;;;;16.50;36.80;95832.03;10363914;28;20045;-30
2024/01/14 14:11:35;;;;;;;8.45;6.32;;;;;;;16.51;36.40;95826.97;10365941;28;20022;-30
2024/01/14 14:16:37;;;;;;;8.60;6.13;;;;;;;16.51;36.21;95821.91;10365182;28;20068;-31
2024/01/14 14:21:38;;;;;;;9.48;6.35;;;;;;;16.49;36.73;95818.56;10364623;28;20034;-30
2024/01/14 14:26:38;;;;;;;8.40;5.97;;;;;;;16.51;36.51;95821.91;10366249;28;20028;-30
2024/01/14 14:31:39;;;;;;;11.13;6.83;;;;;;;16.56;34.13;95817.69;10364241;28;20030;-30
2024/01/14 14:36:39;;;;;;;11.20;7.95;;;;;;;16.67;31.29;95815.91;10364765;28;20063;-30
2024/01/14 14:41:40;;;;;;;12.10;9.37;;;;;;;16.65;30.85;95810.03;10365502;28;20034;-30
2024/01/14 14:46:41;;;;;;;12.77;9.80;;;;;;;16.69;30.48;95811.66;10364339;28;20030;-30
2024/01/14 14:51:41;;;;;;;14.07;9.90;;;;;;;16.67;30.63;95810.00;10363497;28;20026;-30
2024/01/14 14:56:41;;;;;;;11.70;8.37;;;;;;;16.60;30.82;95799.09;10361747;28;20307;-30
2024/01/14 15:01:42;;;;;;;12.57;9.83;;;;;;;16.47;31.08;95776.47;10364902;28;20307;-30
2024/01/14 15:06:42;;;;;;;11.37;8.73;;;;;;;16.54;29.78;95780.63;10363039;28;20100;-30
2024/01/14 15:11:43;;;;;;;11.60;8.70;;;;;;;16.54;30.12;95771.34;10363844;28;20032;-30
2024/01/14 15:16:43;;;;;;;10.90;7.90;;;;;;;16.53;30.67;95779.78;10364277;28;20037;-30
2024/01/14 15:21:46;;;;;;;12.88;9.00;;;;;;;16.35;29.46;95761.38;10362466;28;20037;-30
2024/01/14 15:26:46;;;;;;;15.30;9.43;;;;;;;16.54;29.31;95761.25;10362475;28;20522;-29
2024/01/14 15:31:47;;;;;;;15.53;8.93;;;;;;;16.60;35.31;95765.44;10364978;28;20034;-30
2024/01/14 15:36:47;;;;;;;12.38;7.57;;;;;;;16.54;37.38;95752.84;10365602;28;20399;-30
2024/01/14 15:41:48;;;;;;;10.43;8.18;;;;;;;16.59;34.84;95743.53;10357827;28;20095;-30
2024/01/14 15:46:48;;;;;;;20.67;9.60;;;;;;;16.67;34.96;95749.34;10365491;28;20033;-30
2024/01/14 15:51:48;;;;;;;13.70;8.40;;;;;;;16.51;33.81;95710.75;10355214;28;20292;-30
2024/01/14 15:56:49;;;;;;;17.10;8.97;;;;;;;16.61;38.98;95731.75;10358199;28;20113;-30
2024/01/14 16:01:49;;;;;;;12.83;7.90;;;;;;;16.55;38.64;95721.69;10361304;28;20308;-31
2024/01/14 16:06:50;;;;;;;11.27;8.07;;;;;;;16.55;38.04;95714.91;10358610;28;20038;-30
2024/01/14 16:11:50;;;;;;;12.27;7.10;;;;;;;16.56;36.45;95716.63;10364143;28;20045;-30
2024/01/14 16:16:50;;;;;;;12.57;8.40;;;;;;;16.58;36.63;95707.34;10363158;28;20054;-30
2024/01/14 16:21:51;;;;;;;11.40;7.30;;;;;;;16.62;36.09;95696.31;10360391;28;20034;-31
2024/01/14 16:26:51;;;;;;;9.90;7.07;;;;;;;16.60;37.39;95690.47;10364409;28;20807;-30
2024/01/14 16:31:51;;;;;;;12.57;7.00;;;;;;;16.62;37.60;95683.69;10360837;28;20379;-29
2024/01/14 16:36:52;;;;;;;11.93;6.77;;;;;;;16.64;36.00;95681.16;10357702;28;20493;-29
2024/01/14 16:41:52;;;;;;;9.80;6.37;;;;;;;16.60;38.17;95672.78;10354846;28;20402;-29
2024/01/14 16:46:52;;;;;;;10.00;7.07;;;;;;;16.60;37.92;95665.19;10360387;28;20754;-30
2024/01/14 16:51:53;;;;;;;8.10;5.67;;;;;;;16.61;37.85;95666.88;10362917;28;20437;-29
2024/01/14 16:56:53;;;;;;;14.47;7.20;;;;;;;16.64;37.97;95666.84;10364486;28;20293;-30
2024/01/14 17:01:53;;;;;;;8.63;5.63;;;;;;;16.66;37.66;95655.03;10362427;28;20088;-29
2024/01/14 17:06:54;;;;;;;9.20;6.20;;;;;;;16.68;35.23;95658.38;10362873;28;20034;-30
2024/01/14 17:11:55;;;;;;;9.83;5.90;;;;;;;16.70;34.65;95676.88;10361835;28;20022;-30
2024/01/14 17:16:55;;;;;;;8.52;5.68;;;;;;;16.66;38.33;95675.25;10362658;28;20293;-29
2024/01/14 17:21:56;;;;;;;13.10;5.40;;;;;;;16.59;39.22;95650.88;10362092;28;20072;-30
2024/01/14 17:26:56;;;;;;;10.40;5.60;;;;;;;16.57;39.19;95645.03;10361683;28;20275;-29
2024/01/14 17:31:56;;;;;;;9.47;5.17;;;;;;;16.57;38.19;95642.50;10368851;28;20040;-30
2024/01/14 17:36:57;;;;;;;10.10;5.33;;;;;;;16.57;38.19;95645.03;10370786;28;20033;-30
2024/01/14 17:41:57;;;;;;;14.67;5.03;;;;;;;16.59;35.30;95653.41;10370664;28;20030;-30
2024/01/14 17:46:57;;;;;;;8.60;5.10;;;;;;;16.61;38.16;95646.66;10370988;28;20038;-30
2024/01/14 17:51:58;;;;;;;8.10;5.43;;;;;;;16.58;39.78;95646.69;10365848;28;20025;-30
2024/01/14 17:56:58;;;;;;;6.87;4.83;;;;;;;16.56;40.42;95640.81;10370688;28;20042;-31
2024/01/14 18:01:58;;;;;;;7.27;5.23;;;;;;;16.60;39.61;95642.44;10369205;28;20046;-29
2024/01/14 18:06:59;;;;;;;9.52;5.15;;;;;;;16.59;39.44;95628.16;10368549;28;20030;-30
2024/01/14 18:12:00;;;;;;;5.87;3.93;;;;;;;16.59;39.04;95625.63;10368936;28;20038;-29
2024/01/14 18:17:00;;;;;;;12.27;4.70;;;;;;;16.62;38.54;95628.09;10367548;28;20033;-30
2024/01/14 18:22:00;;;;;;;9.77;4.37;;;;;;;16.57;36.42;95647.56;10368527;28;20045;-30
2024/01/14 18:27:01;;;;;;;7.10;4.30;;;;;;;16.61;38.17;95651.69;10368898;28;20034;-30
2024/01/14 18:32:01;;;;;;;6.97;5.10;;;;;;;16.62;36.64;95663.47;10369617;28;20279;-30
2024/01/14 18:37:03;;;;;;;6.60;4.70;;;;;;;16.65;36.87;95666.00;10368148;28;20041;-29
2024/01/14 18:42:04;;;;;;;6.68;4.18;;;;;;;16.52;38.91;95659.38;10367506;28;20038;-29
2024/01/14 18:47:04;;;;;;;10.55;4.00;;;;;;;16.45;38.08;95629.97;10368462;28;20030;-30
2024/01/14 18:52:07;;;;;;;7.47;4.43;;;;;;;16.52;39.20;95646.75;10363952;28;20088;-30
2024/01/14 18:57:08;;;;;;;6.65;4.55;;;;;;;16.55;39.66;95650.94;10367660;28;20323;-29
2024/01/14 19:02:08;;;;;;;7.47;4.10;;;;;;;16.61;37.29;95656.75;10367595;28;20049;-30
2024/01/14 19:07:09;;;;;;;9.07;4.80;;;;;;;16.61;36.80;95661.00;10358640;28;20045;-30
2024/01/14 19:12:09;;;;;;;7.25;5.32;;;;;;;16.63;37.92;95649.19;10363197;28;20094;-30
2024/01/14 19:17:10;;;;;;;9.07;5.35;;;;;;;16.64;37.05;95661.81;10361505;28;20033;-31
2024/01/14 19:22:10;;;;;;;8.67;4.30;;;;;;;16.66;37.90;95675.25;10361509;28;20042;-30
2024/01/14 19:27:11;;;;;;;9.57;5.13;;;;;;;16.67;37.98;95676.94;10361428;28;20482;-28
2024/01/14 19:32:11;;;;;;;8.70;4.95;;;;;;;16.64;37.18;95681.16;10357279;28;20497;-29
2024/01/14 19:37:12;;;;;;;6.60;5.07;;;;;;;16.62;37.30;95678.63;10361617;28;20045;-29
2024/01/14 19:42:13;;;;;;;7.83;4.43;;;;;;;16.60;37.45;95689.63;10359647;28;20038;-30
2024/01/14 19:47:14;;;;;;;8.73;5.30;;;;;;;16.53;38.01;95668.63;10358626;28;20038;-30
2024/01/14 19:52:14;;;;;;;7.43;4.90;;;;;;;16.60;37.08;95670.25;10359001;28;20465;-29
2024/01/14 19:57:15;;;;;;;6.28;4.82;;;;;;;16.57;37.46;95675.34;10361608;28;20400;-30
2024/01/14 20:02:15;;;;;;;6.80;5.22;;;;;;;16.54;37.91;95657.66;10356149;28;20041;-30
2024/01/14 20:07:16;;;;;;;8.83;5.00;;;;;;;16.45;38.05;95650.16;10360742;28;20064;-29
2024/01/14 20:12:18;;;;;;;7.68;4.93;;;;;;;16.45;38.21;95645.13;10358311;28;20472;-32
2024/01/14 20:17:22;;;;;;;6.95;4.57;;;;;;;16.50;37.88;95643.41;10354172;28;20040;-30
2024/01/14 20:22:22;;;;;;;5.65;4.13;;;;;;;16.48;37.83;95647.63;10359923;28;20038;-31
2024/01/14 20:27:23;;;;;;;6.35;4.45;;;;;;;16.46;37.55;95636.69;10358800;28;20410;-29
2024/01/14 20:32:24;;;;;;;5.22;4.05;;;;;;;16.48;37.84;95642.59;10357048;28;20034;-30
2024/01/14 20:37:24;;;;;;;6.75;4.05;;;;;;;16.44;38.22;95638.41;10357551;28;20453;-29
2024/01/14 20:42:24;;;;;;;4.53;3.57;;;;;;;16.43;37.80;95635.88;10359666;28;20091;-30
2024/01/14 20:47:25;;;;;;;5.77;3.77;;;;;;;16.40;37.96;95636.75;10359940;28;20069;-29
2024/01/14 20:52:26;;;;;;;5.13;3.83;;;;;;;16.43;37.89;95645.97;10357445;28;20040;-29
2024/01/14 20:57:26;;;;;;;6.30;3.53;;;;;;;16.46;37.30;95634.16;10357884;28;20041;-30
2024/01/14 21:02:27;;;;;;;4.27;3.47;;;;;;;16.47;37.15;95643.44;10358819;28;20065;-30
2024/01/14 21:07:28;;;;;;;3.93;3.43;;;;;;;16.39;37.24;95632.56;10355804;28;20389;-31
2024/01/14 21:12:28;;;;;;;6.78;4.28;;;;;;;16.53;36.58;95643.38;10356746;28;20129;-29
2024/01/14 21:17:29;;;;;;;5.70;3.67;;;;;;;16.57;36.52;95642.50;10356464;28;20037;-30
2024/01/14 21:22:29;;;;;;;5.03;3.78;;;;;;;16.59;35.81;95647.50;10357410;28;20465;-30
2024/01/14 21:27:30;;;;;;;6.37;4.23;;;;;;;16.64;36.15;95656.75;10359612;28;20461;-31
2024/01/14 21:32:32;;;;;;;4.82;3.97;;;;;;;16.61;36.96;95644.13;10357935;28;20062;-29
2024/01/14 21:37:32;;;;;;;6.20;3.33;;;;;;;16.59;35.78;95648.38;10358735;28;20116;-29
2024/01/14 21:42:33;;;;;;;7.10;4.70;;;;;;;16.58;38.16;95654.28;10355879;28;20040;-30
2024/01/14 21:47:34;;;;;;;6.85;4.63;;;;;;;16.53;37.65;95638.31;10354265;28;20037;-29
2024/01/14 21:52:34;;;;;;;9.07;4.27;;;;;;;16.51;39.00;95640.03;10353402;28;20421;-29
2024/01/14 21:57:34;;;;;;;5.93;3.67;;;;;;;16.52;39.74;95639.16;10355598;28;20493;-30
2024/01/14 22:02:35;;;;;;;5.37;3.80;;;;;;;16.55;38.64;95656.81;10358251;28;20296;-30
2024/01/14 22:07:35;;;;;;;7.57;3.97;;;;;;;16.47;38.41;95673.75;10357741;28;20042;-29
2024/01/14 22:12:36;;;;;;;7.90;4.30;;;;;;;16.47;39.29;95676.28;10357701;28;20517;-29
2024/01/14 22:17:36;;;;;;;6.95;3.83;;;;;;;16.43;39.22;95699.88;10361107;28;20498;-31
2024/01/14 22:22:37;;;;;;;5.93;4.37;;;;;;;16.41;38.75;95704.09;10368830;28;20045;-30
2024/01/14 22:27:37;;;;;;;10.10;4.10;;;;;;;16.42;38.78;95697.34;10367269;28;20044;-29
2024/01/14 22:32:38;;;;;;;7.80;4.60;;;;;;;16.38;39.22;95704.13;10368534;28;20464;-31
2024/01/14 22:37:38;;;;;;;7.20;4.07;;;;;;;16.39;39.85;95705.81;10368824;28;20383;-30
2024/01/14 22:42:38;;;;;;;8.37;4.50;;;;;;;16.42;38.64;95715.88;10367915;28;20088;-29
2024/01/14 22:47:39;;;;;;;6.23;4.40;;;;;;;16.44;39.58;95724.28;10368334;28;20343;-31
2024/01/14 22:52:39;;;;;;;7.83;4.23;;;;;;;16.47;39.86;95729.34;10368253;28;20795;-29
2024/01/14 22:57:39;;;;;;;10.47;5.40;;;;;;;16.51;40.31;95723.38;10367952;28;20116;-31
2024/01/14 23:02:40;;;;;;;7.53;4.97;;;;;;;16.44;39.63;95700.72;10367331;28;20106;-30
2024/01/14 23:07:40;;;;;;;11.47;6.43;;;;;;;16.54;40.36;95732.63;10368243;28;20029;-29